DAL1701 LGSA-EDDF
Flight info
| Callsign | DAL1701 |
|---|---|
| Flight time | N/A |
| Altitude | 40000 |
| Route | SOKRI UB1 VELOP DCT DIMIS DCT PETAK DCT GLOMY DCT ELTIB DCT TUPUS DCT GORPA DCT KFT DCT SIMBA DCT AKINI T161 DEBHI DEBHI1A |
| Aircraft | A339/H-SADE1E2E3GHIJ3J5M1P2RWXY/LB2D1 |
Departure
| Time | N/A |
|---|---|
| Airport | Chania International Airport (LGSA) |
Arrival
| Time | 2026-04-19 06:45 |
|---|---|
| Airport | Frankfurt Main Airport (EDDF) |
| Time | Latitude | Longitude | Altitude | Speed | Heading |
|---|---|---|---|---|---|
| 2026-04-19 06:06 | 48.82830 | 11.38091 | 38507 ft | 435 kts | 278° |
| 2026-04-19 06:06 | 48.83291 | 11.33573 | 37767 ft | 433 kts | 277° |
| 2026-04-19 06:07 | 48.83749 | 11.29062 | 37051 ft | 431 kts | 277° |
| 2026-04-19 06:07 | 48.84436 | 11.24631 | 36296 ft | 433 kts | 287° |
| 2026-04-19 06:07 | 48.85729 | 11.20504 | 35563 ft | 436 kts | 298° |
| 2026-04-19 06:07 | 48.87591 | 11.16843 | 34812 ft | 442 kts | 310° |
| 2026-04-19 06:08 | 48.89860 | 11.13672 | 34066 ft | 445 kts | 315° |
| 2026-04-19 06:08 | 48.92241 | 11.10659 | 33125 ft | 446 kts | 315° |
| 2026-04-19 06:08 | 48.94617 | 11.07609 | 32118 ft | 447 kts | 315° |
| 2026-04-19 06:08 | 48.96928 | 11.04532 | 31128 ft | 448 kts | 314° |
| 2026-04-19 06:09 | 48.99239 | 11.01363 | 30374 ft | 446 kts | 313° |
| 2026-04-19 06:09 | 49.01511 | 10.98197 | 29707 ft | 440 kts | 313° |
| 2026-04-19 06:09 | 49.03752 | 10.95053 | 28998 ft | 435 kts | 313° |
| 2026-04-19 06:09 | 49.05961 | 10.91942 | 28281 ft | 430 kts | 313° |
| 2026-04-19 06:10 | 49.08147 | 10.88860 | 27565 ft | 426 kts | 313° |
| 2026-04-19 06:10 | 49.10310 | 10.85805 | 26868 ft | 422 kts | 312° |
| 2026-04-19 06:10 | 49.12453 | 10.82774 | 26200 ft | 418 kts | 312° |
| 2026-04-19 06:10 | 49.14573 | 10.79772 | 25523 ft | 414 kts | 312° |
| 2026-04-19 06:11 | 49.16643 | 10.76837 | 24880 ft | 410 kts | 312° |
| 2026-04-19 06:11 | 49.18721 | 10.73888 | 24321 ft | 405 kts | 312° |
| 2026-04-19 06:11 | 49.20762 | 10.70963 | 24132 ft | 402 kts | 311° |
| 2026-04-19 06:12 | 49.23964 | 10.65932 | 24047 ft | 407 kts | 308° |
| 2026-04-19 06:12 | 49.25906 | 10.62803 | 24070 ft | 406 kts | 308° |
| 2026-04-19 06:12 | 49.27847 | 10.59696 | 24046 ft | 401 kts | 309° |
| 2026-04-19 06:12 | 49.29783 | 10.56615 | 24046 ft | 402 kts | 309° |
| 2026-04-19 06:13 | 49.31726 | 10.53533 | 24046 ft | 403 kts | 309° |
| 2026-04-19 06:13 | 49.32718 | 10.51961 | 24046 ft | 403 kts | 309° |
| 2026-04-19 06:13 | 49.34666 | 10.48875 | 24046 ft | 403 kts | 309° |
| 2026-04-19 06:13 | 49.36511 | 10.45672 | 24029 ft | 399 kts | 303° |
| 2026-04-19 06:14 | 49.38112 | 10.42213 | 24026 ft | 397 kts | 300° |
| 2026-04-19 06:14 | 49.39690 | 10.38722 | 24027 ft | 398 kts | 300° |
| 2026-04-19 06:14 | 49.41274 | 10.35248 | 24027 ft | 397 kts | 300° |
| 2026-04-19 06:14 | 49.42863 | 10.31776 | 24026 ft | 397 kts | 300° |
| 2026-04-19 06:15 | 49.44450 | 10.28319 | 24042 ft | 395 kts | 301° |
| 2026-04-19 06:15 | 49.46014 | 10.24925 | 24042 ft | 395 kts | 301° |
| 2026-04-19 06:15 | 49.47604 | 10.21486 | 24046 ft | 395 kts | 301° |
| 2026-04-19 06:15 | 49.49198 | 10.18045 | 24045 ft | 395 kts | 301° |
| 2026-04-19 06:16 | 49.50795 | 10.14607 | 24045 ft | 395 kts | 301° |
| 2026-04-19 06:16 | 49.52396 | 10.11166 | 23993 ft | 395 kts | 301° |
| 2026-04-19 06:16 | 49.54000 | 10.07721 | 23803 ft | 396 kts | 301° |
| 2026-04-19 06:16 | 49.55605 | 10.04277 | 23556 ft | 395 kts | 301° |
| 2026-04-19 06:17 | 49.57206 | 10.00850 | 23275 ft | 393 kts | 302° |
| 2026-04-19 06:17 | 49.58804 | 9.97437 | 22999 ft | 392 kts | 302° |
| 2026-04-19 06:17 | 49.60376 | 9.94088 | 22731 ft | 391 kts | 302° |
| 2026-04-19 06:17 | 49.61970 | 9.90700 | 22483 ft | 392 kts | 302° |
| 2026-04-19 06:18 | 49.63578 | 9.87288 | 22202 ft | 393 kts | 302° |
| 2026-04-19 06:18 | 49.65145 | 9.83854 | 21942 ft | 389 kts | 300° |
| 2026-04-19 06:18 | 49.66611 | 9.80363 | 21691 ft | 387 kts | 298° |
| 2026-04-19 06:18 | 49.68048 | 9.76859 | 21241 ft | 386 kts | 298° |
| 2026-04-19 06:19 | 49.69492 | 9.73339 | 20396 ft | 391 kts | 299° |
| 2026-04-19 06:19 | 49.70954 | 9.69810 | 19644 ft | 389 kts | 299° |
| 2026-04-19 06:19 | 49.72396 | 9.66349 | 18865 ft | 385 kts | 299° |
| 2026-04-19 06:19 | 49.73847 | 9.62878 | 18070 ft | 381 kts | 300° |
| 2026-04-19 06:20 | 49.75300 | 9.59487 | 17499 ft | 374 kts | 301° |
| 2026-04-19 06:20 | 49.76749 | 9.56237 | 17127 ft | 360 kts | 301° |
| 2026-04-19 06:20 | 49.78169 | 9.53079 | 16684 ft | 358 kts | 301° |
| 2026-04-19 06:20 | 49.79585 | 9.49909 | 16236 ft | 358 kts | 301° |
| 2026-04-19 06:21 | 49.80987 | 9.46746 | 15793 ft | 354 kts | 300° |
| 2026-04-19 06:21 | 49.82375 | 9.43602 | 15276 ft | 354 kts | 300° |
| 2026-04-19 06:21 | 49.83734 | 9.40517 | 14774 ft | 344 kts | 300° |
| 2026-04-19 06:21 | 49.85071 | 9.37449 | 14384 ft | 348 kts | 299° |
| 2026-04-19 06:22 | 49.86219 | 9.34156 | 13951 ft | 344 kts | 291° |
| 2026-04-19 06:22 | 49.87042 | 9.30734 | 13598 ft | 335 kts | 284° |
| 2026-04-19 06:22 | 49.87672 | 9.27274 | 13263 ft | 333 kts | 283° |
| 2026-04-19 06:22 | 49.88319 | 9.23820 | 12939 ft | 333 kts | 284° |
| 2026-04-19 06:23 | 49.88975 | 9.20387 | 12600 ft | 331 kts | 284° |
| 2026-04-19 06:23 | 49.89631 | 9.16972 | 12260 ft | 330 kts | 284° |
| 2026-04-19 06:23 | 49.90269 | 9.13636 | 11929 ft | 327 kts | 284° |
| 2026-04-19 06:23 | 49.90924 | 9.10202 | 11625 ft | 325 kts | 284° |
| 2026-04-19 06:24 | 49.91563 | 9.06843 | 11297 ft | 324 kts | 284° |
| 2026-04-19 06:24 | 49.92196 | 9.03502 | 11070 ft | 322 kts | 284° |
| 2026-04-19 06:24 | 49.92830 | 9.00171 | 11002 ft | 322 kts | 284° |
| 2026-04-19 06:24 | 49.93460 | 8.96875 | 11000 ft | 322 kts | 284° |
| 2026-04-19 06:25 | 49.94097 | 8.93542 | 10999 ft | 322 kts | 284° |
| 2026-04-19 06:25 | 49.94734 | 8.90203 | 10999 ft | 322 kts | 284° |
| 2026-04-19 06:25 | 49.95368 | 8.86872 | 11000 ft | 322 kts | 284° |
| 2026-04-19 06:25 | 49.96003 | 8.83535 | 11001 ft | 323 kts | 284° |
| 2026-04-19 06:26 | 49.96639 | 8.80189 | 11002 ft | 322 kts | 284° |
| 2026-04-19 06:26 | 49.97269 | 8.76858 | 11004 ft | 321 kts | 284° |
| 2026-04-19 06:26 | 49.97760 | 8.73494 | 11001 ft | 319 kts | 275° |
| 2026-04-19 06:26 | 49.97709 | 8.70052 | 11001 ft | 320 kts | 261° |
| 2026-04-19 06:27 | 49.97102 | 8.66741 | 11000 ft | 319 kts | 249° |
| 2026-04-19 06:27 | 49.96318 | 8.63661 | 10997 ft | 319 kts | 250° |
| 2026-04-19 06:27 | 49.95538 | 8.60490 | 10999 ft | 319 kts | 250° |
| 2026-04-19 06:27 | 49.94759 | 8.57265 | 10999 ft | 320 kts | 250° |
| 2026-04-19 06:28 | 49.93987 | 8.54051 | 10970 ft | 314 kts | 250° |
| 2026-04-19 06:28 | 49.93235 | 8.50931 | 10864 ft | 301 kts | 250° |
| 2026-04-19 06:28 | 49.92520 | 8.47971 | 10735 ft | 284 kts | 250° |
| 2026-04-19 06:28 | 49.91845 | 8.45177 | 10414 ft | 271 kts | 250° |
| 2026-04-19 06:29 | 49.91193 | 8.42472 | 10151 ft | 266 kts | 251° |
| 2026-04-19 06:29 | 49.90536 | 8.39738 | 10153 ft | 272 kts | 251° |
| 2026-04-19 06:29 | 49.89877 | 8.37002 | 10153 ft | 270 kts | 251° |
| 2026-04-19 06:29 | 49.89219 | 8.34281 | 10142 ft | 269 kts | 250° |
| 2026-04-19 06:30 | 49.88567 | 8.31579 | 10140 ft | 266 kts | 250° |
| 2026-04-19 06:30 | 49.87909 | 8.28864 | 10145 ft | 270 kts | 250° |
| 2026-04-19 06:30 | 49.87248 | 8.26144 | 10131 ft | 267 kts | 250° |
| 2026-04-19 06:30 | 49.86617 | 8.23557 | 9934 ft | 255 kts | 250° |
| 2026-04-19 06:31 | 49.85993 | 8.20996 | 9830 ft | 256 kts | 250° |
| 2026-04-19 06:31 | 49.85360 | 8.18400 | 9820 ft | 257 kts | 250° |
| 2026-04-19 06:31 | 49.84735 | 8.15831 | 9520 ft | 255 kts | 250° |
| 2026-04-19 06:31 | 49.84105 | 8.13248 | 9102 ft | 255 kts | 250° |
| 2026-04-19 06:32 | 49.83477 | 8.10686 | 8535 ft | 254 kts | 251° |
| 2026-04-19 06:32 | 49.82857 | 8.08127 | 7887 ft | 253 kts | 252° |
| 2026-04-19 06:32 | 49.82569 | 8.05457 | 7238 ft | 249 kts | 263° |
| 2026-04-19 06:32 | 49.81934 | 8.02945 | 6579 ft | 253 kts | 242° |
| 2026-04-19 06:33 | 49.81066 | 8.00572 | 5794 ft | 255 kts | 248° |
| 2026-04-19 06:33 | 49.80403 | 7.98058 | 5310 ft | 248 kts | 252° |
| 2026-04-19 06:33 | 49.79785 | 7.95553 | 5125 ft | 255 kts | 252° |
| 2026-04-19 06:33 | 49.79313 | 7.92973 | 5015 ft | 240 kts | 268° |
| 2026-04-19 06:34 | 49.79542 | 7.90567 | 4949 ft | 220 kts | 292° |
| 2026-04-19 06:34 | 49.80379 | 7.88706 | 4849 ft | 205 kts | 316° |
| 2026-04-19 06:34 | 49.81573 | 7.87617 | 4729 ft | 196 kts | 339° |
| 2026-04-19 06:34 | 49.82879 | 7.87361 | 4674 ft | 185 kts | 359° |
| 2026-04-19 06:35 | 49.84096 | 7.87840 | 4567 ft | 178 kts | 19° |
| 2026-04-19 06:35 | 49.85091 | 7.88916 | 4459 ft | 171 kts | 39° |
| 2026-04-19 06:35 | 49.85807 | 7.90352 | 4351 ft | 173 kts | 50° |
| 2026-04-19 06:35 | 49.86575 | 7.91994 | 4278 ft | 195 kts | 49° |
| 2026-04-19 06:36 | 49.87385 | 7.93658 | 4146 ft | 191 kts | 47° |
| 2026-04-19 06:36 | 49.88190 | 7.95279 | 4036 ft | 190 kts | 47° |
| 2026-04-19 06:36 | 49.88981 | 7.96922 | 4010 ft | 191 kts | 51° |
| 2026-04-19 06:36 | 49.89602 | 7.98733 | 4011 ft | 194 kts | 61° |
| 2026-04-19 06:37 | 49.90106 | 8.00686 | 4009 ft | 195 kts | 65° |
| 2026-04-19 06:37 | 49.90579 | 8.02664 | 4005 ft | 195 kts | 65° |
| 2026-04-19 06:37 | 49.91051 | 8.04632 | 4009 ft | 194 kts | 65° |
| 2026-04-19 06:37 | 49.91522 | 8.06592 | 4013 ft | 193 kts | 64° |
| 2026-04-19 06:38 | 49.91988 | 8.08544 | 4008 ft | 192 kts | 64° |
| 2026-04-19 06:38 | 49.92456 | 8.10482 | 4004 ft | 191 kts | 63° |
| 2026-04-19 06:38 | 49.92922 | 8.12418 | 4015 ft | 193 kts | 63° |
| 2026-04-19 06:38 | 49.93393 | 8.14374 | 4004 ft | 193 kts | 63° |
| 2026-04-19 06:39 | 49.93856 | 8.16292 | 4010 ft | 193 kts | 64° |
| 2026-04-19 06:39 | 49.94319 | 8.18239 | 4020 ft | 192 kts | 64° |
| 2026-04-19 06:39 | 49.94789 | 8.20196 | 4008 ft | 193 kts | 63° |
| 2026-04-19 06:39 | 49.95263 | 8.22153 | 4017 ft | 197 kts | 64° |
| 2026-04-19 06:40 | 49.95742 | 8.24155 | 4005 ft | 197 kts | 64° |
| 2026-04-19 06:40 | 49.96222 | 8.26159 | 3989 ft | 198 kts | 63° |
| 2026-04-19 06:40 | 49.96693 | 8.28124 | 3807 ft | 191 kts | 64° |
| 2026-04-19 06:40 | 49.97147 | 8.30028 | 3545 ft | 184 kts | 63° |
| 2026-04-19 06:41 | 49.97580 | 8.31835 | 3294 ft | 173 kts | 62° |
| 2026-04-19 06:41 | 49.97986 | 8.33524 | 3069 ft | 164 kts | 62° |
| 2026-04-19 06:41 | 49.98383 | 8.35172 | 2848 ft | 162 kts | 62° |
| 2026-04-19 06:41 | 49.98771 | 8.36792 | 2634 ft | 159 kts | 62° |
| 2026-04-19 06:42 | 49.99157 | 8.38400 | 2418 ft | 157 kts | 62° |
| 2026-04-19 06:42 | 49.99532 | 8.39972 | 2211 ft | 156 kts | 62° |
| 2026-04-19 06:42 | 49.99895 | 8.41491 | 1990 ft | 143 kts | 61° |
| 2026-04-19 06:42 | 50.00248 | 8.42948 | 1790 ft | 143 kts | 62° |
| 2026-04-19 06:43 | 50.00590 | 8.44390 | 1598 ft | 146 kts | 62° |
| 2026-04-19 06:43 | 50.00940 | 8.45848 | 1392 ft | 141 kts | 63° |
| 2026-04-19 06:43 | 50.01276 | 8.47257 | 1201 ft | 140 kts | 63° |
| 2026-04-19 06:43 | 50.01624 | 8.48696 | 1000 ft | 140 kts | 65° |
| 2026-04-19 06:44 | 50.01968 | 8.50148 | 815 ft | 148 kts | 66° |
| 2026-04-19 06:44 | 50.02317 | 8.51606 | 619 ft | 138 kts | 68° |
| 2026-04-19 06:44 | 50.02614 | 8.52838 | 474 ft | 145 kts | 66° |
| 2026-04-19 06:44 | 50.02970 | 8.54315 | 337 ft | 106 kts | 71° |
| 2026-04-19 06:45 | 50.03034 | 8.54689 | 345 ft | 5 kts | 109° |
| 2026-04-19 06:45 | 50.03005 | 8.54714 | 353 ft | 10 kts | 165° |
| 2026-04-19 06:45 | 50.02919 | 8.54729 | 353 ft | 13 kts | 159° |
| 2026-04-19 06:45 | 50.02907 | 8.54857 | 353 ft | 16 kts | 69° |
| 2026-04-19 06:46 | 50.02978 | 8.55143 | 353 ft | 27 kts | 70° |
| 2026-04-19 06:46 | 50.03007 | 8.55265 | 355 ft | 9 kts | 70° |
| 2026-04-19 06:46 | 50.03038 | 8.55393 | 350 ft | 14 kts | 69° |
| 2026-04-19 06:46 | 50.03060 | 8.55491 | 356 ft | 15 kts | 71° |
| 2026-04-19 06:47 | 50.03093 | 8.55648 | 356 ft | 15 kts | 70° |
| 2026-04-19 06:47 | 50.03137 | 8.55805 | 360 ft | 16 kts | 67° |
| 2026-04-19 06:47 | 50.03178 | 8.55965 | 360 ft | 16 kts | 69° |
| 2026-04-19 06:47 | 50.03219 | 8.56135 | 361 ft | 17 kts | 70° |
| 2026-04-19 06:48 | 50.03258 | 8.56317 | 358 ft | 18 kts | 72° |
| 2026-04-19 06:48 | 50.03304 | 8.56508 | 359 ft | 19 kts | 70° |
| 2026-04-19 06:48 | 50.03350 | 8.56708 | 362 ft | 20 kts | 68° |
| 2026-04-19 06:48 | 50.03399 | 8.56909 | 360 ft | 20 kts | 69° |
| 2026-04-19 06:49 | 50.03448 | 8.57114 | 364 ft | 20 kts | 71° |
| 2026-04-19 06:49 | 50.03504 | 8.57266 | 365 ft | 0 kts | 24° |
| 2026-04-19 06:49 | 50.03507 | 8.57267 | 361 ft | 2 kts | 19° |
| 2026-04-19 06:49 | 50.03542 | 8.57250 | 363 ft | 10 kts | 335° |
| 2026-04-19 06:50 | 50.03628 | 8.57142 | 365 ft | 21 kts | 327° |
| 2026-04-19 06:50 | 50.03755 | 8.56999 | 366 ft | 21 kts | 305° |
| 2026-04-19 06:50 | 50.03776 | 8.56946 | 365 ft | 9 kts | 301° |
| 2026-04-19 06:50 | 50.03829 | 8.56802 | 366 ft | 11 kts | 300° |
| 2026-04-19 06:51 | 50.03849 | 8.56750 | 361 ft | 4 kts | 300° |
| 2026-04-19 06:51 | 50.03893 | 8.56685 | 367 ft | 11 kts | 339° |
| 2026-04-19 06:51 | 50.03992 | 8.56717 | 366 ft | 18 kts | 12° |
| 2026-04-19 06:51 | 50.04107 | 8.56753 | 369 ft | 15 kts | 11° |
| 2026-04-19 06:52 | 50.04175 | 8.56773 | 368 ft | 11 kts | 11° |
| 2026-04-19 06:52 | 50.04267 | 8.56801 | 371 ft | 12 kts | 11° |
| 2026-04-19 06:52 | 50.04344 | 8.56826 | 366 ft | 18 kts | 11° |
| 2026-04-19 06:52 | 50.04405 | 8.56843 | 371 ft | 14 kts | 11° |
| 2026-04-19 06:53 | 50.04484 | 8.56962 | 367 ft | 19 kts | 66° |
| 2026-04-19 06:53 | 50.04503 | 8.57033 | 367 ft | 13 kts | 69° |
| 2026-04-19 06:53 | 50.04519 | 8.57102 | 365 ft | 0 kts | 70° |